Time;durP1;ratioP1;P1;durP2;ratioP2;P2;SDS_P1;SDS_P2;PMS_P1;PMS_P2;Temp;Humidity;BMP_temperature;BMP_pressure;BME280_temperature;BME280_humidity;BME280_pressure;Samples;Min_cycle;Max_cycle;Signal;HPM_P1;HPM_P2
2021/08/29 00:00:34;;;;;;;1.03;0.77;;;14.80;99.90;;;;;;5057097;28;20687;-66
2021/08/29 00:02:59;;;;;;;0.30;0.10;;;14.80;99.90;;;;;;5056298;28;20173;-66
2021/08/29 00:05:25;;;;;;;0.70;0.70;;;14.80;99.90;;;;;;5057181;28;20187;-66
2021/08/29 00:07:50;;;;;;;0.30;0.20;;;14.70;99.90;;;;;;5057169;28;20522;-66
2021/08/29 00:10:16;;;;;;;2.00;0.63;;;14.70;99.90;;;;;;5056792;28;20205;-65
2021/08/29 00:12:42;;;;;;;0.30;0.20;;;14.60;99.90;;;;;;5056725;28;20561;-65
2021/08/29 00:15:08;;;;;;;0.30;0.20;;;14.60;99.90;;;;;;5056476;28;20227;-65
2021/08/29 00:17:34;;;;;;;1.05;0.93;;;14.70;99.90;;;;;;5056342;28;20175;-65
2021/08/29 00:19:59;;;;;;;0.30;0.20;;;14.70;99.90;;;;;;5056600;28;20264;-65
2021/08/29 00:22:25;;;;;;;0.30;0.20;;;14.80;99.90;;;;;;5057034;28;20342;-65
2021/08/29 00:24:50;;;;;;;0.30;0.20;;;14.90;99.90;;;;;;5056686;28;20176;-65
2021/08/29 00:27:15;;;;;;;0.30;0.20;;;14.90;99.90;;;;;;5055533;28;20184;-65
2021/08/29 00:29:41;;;;;;;0.60;0.47;;;14.70;99.90;;;;;;5056143;28;20515;-65
2021/08/29 00:32:07;;;;;;;0.33;0.30;;;14.60;99.90;;;;;;5056682;28;20181;-65
2021/08/29 00:34:33;;;;;;;0.30;0.10;;;14.50;99.90;;;;;;5056588;28;20169;-65
2021/08/29 00:36:58;;;;;;;0.30;0.20;;;14.60;99.90;;;;;;5056215;28;20975;-66
2021/08/29 00:39:24;;;;;;;0.30;0.20;;;14.70;99.90;;;;;;5056075;28;20189;-66
2021/08/29 00:41:50;;;;;;;0.30;0.20;;;14.60;99.90;;;;;;5055344;28;20193;-66
2021/08/29 00:44:16;;;;;;;0.40;0.30;;;14.60;99.90;;;;;;5056467;28;20260;-66
2021/08/29 00:46:43;;;;;;;0.30;0.10;;;14.60;99.90;;;;;;5056802;28;20511;-66
2021/08/29 00:49:14;;;;;;;0.40;0.30;;;14.70;99.90;;;;;;5056086;28;20192;-66
2021/08/29 00:51:39;;;;;;;0.40;0.20;;;14.70;99.90;;;;;;5056208;28;20208;-66
2021/08/29 00:54:05;;;;;;;0.43;0.37;;;14.70;99.90;;;;;;5056246;28;20575;-66
2021/08/29 00:56:30;;;;;;;0.70;0.70;;;14.70;99.90;;;;;;5055796;28;20642;-66
2021/08/29 00:58:56;;;;;;;1.07;0.70;;;14.60;99.90;;;;;;5055492;28;20192;-66
2021/08/29 01:01:28;;;;;;;0.40;0.20;;;14.70;99.90;;;;;;5054794;28;20177;-66
2021/08/29 01:04:00;;;;;;;0.30;0.20;;;14.70;99.90;;;;;;5054706;28;20185;-66
2021/08/29 01:06:38;;;;;;;2.05;1.95;;;14.70;99.90;;;;;;5054530;28;20181;-66
2021/08/29 01:09:07;;;;;;;0.60;0.30;;;14.70;99.90;;;;;;5055385;28;20264;-66
2021/08/29 01:11:36;;;;;;;0.65;0.40;;;14.70;99.90;;;;;;5054494;28;20200;-66
2021/08/29 01:14:04;;;;;;;0.60;0.60;;;14.70;99.90;;;;;;5055525;28;20215;-66
2021/08/29 01:16:36;;;;;;;0.65;0.60;;;14.80;99.90;;;;;;5055368;28;20177;-66
2021/08/29 01:19:09;;;;;;;0.30;0.20;;;14.70;99.90;;;;;;5055583;28;20540;-66
2021/08/29 01:21:36;;;;;;;1.38;1.05;;;14.80;99.90;;;;;;5055355;28;20231;-66
2021/08/29 01:24:05;;;;;;;0.50;0.50;;;14.60;99.90;;;;;;5055341;28;20677;-66
2021/08/29 01:26:47;;;;;;;0.90;0.90;;;14.60;99.90;;;;;;5055463;28;20221;-66
2021/08/29 01:29:15;;;;;;;0.30;0.20;;;14.60;99.90;;;;;;5055366;28;20185;-66
2021/08/29 01:31:43;;;;;;;0.38;0.30;;;14.60;99.90;;;;;;5055096;28;20338;-66
2021/08/29 01:34:12;;;;;;;0.50;0.30;;;14.60;99.90;;;;;;5055099;28;20626;-66
2021/08/29 01:36:41;;;;;;;1.40;1.40;;;14.60;99.90;;;;;;5055056;28;20188;-66
2021/08/29 01:39:07;;;;;;;0.30;0.20;;;14.70;99.90;;;;;;5055034;28;20192;-66
2021/08/29 01:41:36;;;;;;;0.30;0.20;;;14.70;99.90;;;;;;5055076;28;20625;-66
2021/08/29 01:44:03;;;;;;;0.30;0.20;;;14.60;99.90;;;;;;5054837;28;20185;-66
2021/08/29 01:46:29;;;;;;;3.77;2.10;;;14.70;99.90;;;;;;5054768;28;20513;-66
2021/08/29 01:48:55;;;;;;;0.40;0.30;;;14.50;99.90;;;;;;5054741;28;20429;-66
2021/08/29 01:51:21;;;;;;;3.38;0.60;;;14.50;99.90;;;;;;5054720;28;20201;-66
2021/08/29 01:53:47;;;;;;;0.83;0.77;;;14.60;99.90;;;;;;5054865;28;20207;-66
2021/08/29 01:56:12;;;;;;;0.80;0.37;;;14.50;99.90;;;;;;5054773;28;20176;-65
2021/08/29 01:58:38;;;;;;;1.33;1.23;;;14.50;99.90;;;;;;5054448;28;20193;-65
2021/08/29 02:01:13;;;;;;;0.90;0.90;;;14.60;99.90;;;;;;5053671;28;20188;-66
2021/08/29 02:03:41;;;;;;;0.30;0.20;;;14.50;99.90;;;;;;5054652;28;20180;-66
2021/08/29 02:06:17;;;;;;;0.40;0.30;;;14.60;99.90;;;;;;5054617;28;20271;-66
2021/08/29 02:08:51;;;;;;;0.30;0.20;;;14.60;99.90;;;;;;5054425;28;20653;-66
2021/08/29 02:11:20;;;;;;;0.40;0.30;;;14.70;99.90;;;;;;5054287;28;20208;-66
2021/08/29 02:13:47;;;;;;;0.55;0.55;;;14.70;99.90;;;;;;5054374;28;20653;-66
2021/08/29 02:16:17;;;;;;;0.50;0.47;;;14.60;99.90;;;;;;5054405;28;20183;-66
2021/08/29 02:18:46;;;;;;;0.40;0.35;;;14.70;99.90;;;;;;5054155;28;20625;-66
2021/08/29 02:21:12;;;;;;;2.88;0.43;;;14.70;99.90;;;;;;5054322;28;20196;-66
2021/08/29 02:23:38;;;;;;;0.40;0.30;;;14.50;99.90;;;;;;5054146;28;20173;-66
2021/08/29 02:26:04;;;;;;;2.65;0.80;;;14.50;99.90;;;;;;5054136;28;20468;-66
2021/08/29 02:28:31;;;;;;;0.40;0.30;;;14.50;99.90;;;;;;5053856;28;20173;-66
2021/08/29 02:30:57;;;;;;;0.85;0.85;;;14.80;99.90;;;;;;5054002;28;20204;-66
2021/08/29 02:33:23;;;;;;;2.47;0.70;;;14.60;99.90;;;;;;5054239;28;20203;-66
2021/08/29 02:35:51;;;;;;;1.30;0.98;;;14.50;99.90;;;;;;5054401;28;20177;-65
2021/08/29 02:38:19;;;;;;;1.25;0.93;;;14.40;99.90;;;;;;5053772;28;20630;-65
2021/08/29 02:40:46;;;;;;;0.40;0.32;;;14.40;99.90;;;;;;5054054;28;20191;-65
2021/08/29 02:43:13;;;;;;;0.30;0.20;;;14.40;99.90;;;;;;5053763;28;20185;-65
2021/08/29 02:45:42;;;;;;;0.82;0.77;;;14.50;99.90;;;;;;5054068;28;20173;-65
2021/08/29 02:48:08;;;;;;;1.35;1.05;;;14.70;99.90;;;;;;5053646;28;20173;-66
2021/08/29 02:50:34;;;;;;;0.30;0.20;;;14.50;99.90;;;;;;5053739;28;20201;-66
2021/08/29 02:53:01;;;;;;;0.47;0.47;;;14.50;99.90;;;;;;5052793;28;20218;-66
2021/08/29 02:55:27;;;;;;;0.85;0.52;;;14.50;99.90;;;;;;5053592;28;20189;-66
2021/08/29 02:58:01;;;;;;;0.40;0.40;;;14.50;99.90;;;;;;5053428;28;20566;-66
2021/08/29 03:00:28;;;;;;;0.30;0.20;;;14.50;99.90;;;;;;5052501;28;20223;-66
2021/08/29 03:02:54;;;;;;;0.30;0.10;;;14.50;99.90;;;;;;5053187;28;20176;-66
2021/08/29 03:05:20;;;;;;;0.30;0.20;;;14.60;99.90;;;;;;5053653;28;20439;-66
2021/08/29 03:07:46;;;;;;;0.30;0.22;;;14.60;99.90;;;;;;5053452;28;20234;-66
2021/08/29 03:10:12;;;;;;;0.67;0.40;;;14.60;99.90;;;;;;5053444;28;20653;-66
2021/08/29 03:12:39;;;;;;;1.03;1.03;;;14.60;99.90;;;;;;5053396;28;20173;-66
2021/08/29 03:15:05;;;;;;;1.20;0.90;;;14.50;99.90;;;;;;5053360;28;20557;-66
2021/08/29 03:17:31;;;;;;;0.30;0.25;;;14.50;99.90;;;;;;5052351;28;20306;-66
2021/08/29 03:19:59;;;;;;;0.30;0.17;;;14.60;99.90;;;;;;5053224;28;20181;-66
2021/08/29 03:22:25;;;;;;;1.75;1.65;;;14.80;99.90;;;;;;5053353;28;20517;-66
2021/08/29 03:24:51;;;;;;;0.30;0.20;;;14.70;99.90;;;;;;5052958;28;20177;-66
2021/08/29 03:27:16;;;;;;;0.47;0.47;;;14.60;99.90;;;;;;5053160;28;20750;-66
2021/08/29 03:29:42;;;;;;;0.40;0.33;;;14.60;99.90;;;;;;5052014;28;20181;-66
2021/08/29 03:32:08;;;;;;;0.50;0.50;;;14.60;99.90;;;;;;5053260;28;20696;-66
2021/08/29 03:34:36;;;;;;;0.40;0.30;;;14.60;99.90;;;;;;5053315;28;20169;-66
2021/08/29 03:37:03;;;;;;;0.40;0.40;;;14.60;99.90;;;;;;5053153;28;20544;-66
2021/08/29 03:39:30;;;;;;;1.70;1.35;;;14.70;99.90;;;;;;5053083;28;20177;-66
2021/08/29 03:41:57;;;;;;;0.30;0.10;;;14.60;99.90;;;;;;5053206;28;20181;-66
2021/08/29 03:44:23;;;;;;;0.47;0.47;;;14.70;99.90;;;;;;5052574;28;20227;-66
2021/08/29 03:46:49;;;;;;;1.13;1.13;;;14.80;99.90;;;;;;5053103;28;20621;-66
2021/08/29 03:49:15;;;;;;;0.30;0.20;;;14.90;99.90;;;;;;5053039;28;20888;-66
2021/08/29 03:51:42;;;;;;;0.60;0.40;;;14.80;99.90;;;;;;5052999;28;20463;-66
2021/08/29 03:54:08;;;;;;;0.43;0.43;;;14.70;99.90;;;;;;5053096;28;20271;-66
2021/08/29 03:56:37;;;;;;;2.05;1.95;;;14.80;99.90;;;;;;5052897;28;20427;-66
2021/08/29 03:59:03;;;;;;;0.93;0.47;;;14.70;99.90;;;;;;5052734;28;20618;-66
2021/08/29 04:01:30;;;;;;;1.43;1.03;;;14.60;99.90;;;;;;5052971;28;20264;-66
2021/08/29 04:03:55;;;;;;;0.60;0.30;;;14.60;99.90;;;;;;5052989;28;20622;-67
2021/08/29 04:06:24;;;;;;;1.13;0.83;;;14.90;99.90;;;;;;5053137;28;20266;-65
2021/08/29 04:08:53;;;;;;;0.30;0.10;;;14.70;99.90;;;;;;5053069;28;20563;-65
2021/08/29 04:11:29;;;;;;;0.30;0.20;;;14.70;99.90;;;;;;5053032;28;20713;-65
2021/08/29 04:13:56;;;;;;;0.30;0.30;;;14.80;99.90;;;;;;5052267;28;20169;-67
2021/08/29 04:16:23;;;;;;;0.30;0.20;;;14.90;99.90;;;;;;5052985;28;20238;-67
2021/08/29 04:18:49;;;;;;;0.40;0.30;;;15.00;99.90;;;;;;5052678;28;20181;-66
2021/08/29 04:21:17;;;;;;;0.30;0.20;;;15.00;99.90;;;;;;5053300;28;20267;-66
2021/08/29 04:23:43;;;;;;;1.42;0.77;;;14.90;99.90;;;;;;5053323;28;20449;-66
2021/08/29 04:26:09;;;;;;;0.30;0.20;;;14.80;99.90;;;;;;5052651;28;20614;-66
2021/08/29 04:28:36;;;;;;;0.30;0.30;;;14.90;99.90;;;;;;5052587;28;20181;-66
2021/08/29 04:31:07;;;;;;;0.98;0.50;;;14.80;99.90;;;;;;5052625;28;20215;-66
2021/08/29 04:33:33;;;;;;;0.63;0.50;;;14.80;99.90;;;;;;5052710;28;20587;-66
2021/08/29 04:35:58;;;;;;;0.30;0.20;;;14.70;99.90;;;;;;5054121;28;20252;-66
2021/08/29 04:38:24;;;;;;;0.60;0.40;;;14.70;99.90;;;;;;5055998;28;20617;-66
2021/08/29 04:40:49;;;;;;;0.40;0.27;;;14.80;99.90;;;;;;5056138;28;20177;-66
2021/08/29 04:43:15;;;;;;;1.40;0.77;;;14.70;99.90;;;;;;5056215;28;20191;-66
2021/08/29 04:45:40;;;;;;;0.30;0.20;;;14.70;99.90;;;;;;5056152;28;20283;-66
2021/08/29 04:48:06;;;;;;;0.50;0.40;;;14.80;99.90;;;;;;5055870;28;20231;-66
2021/08/29 04:50:32;;;;;;;0.30;0.20;;;14.70;99.90;;;;;;5056047;28;20234;-66
2021/08/29 04:52:58;;;;;;;0.63;0.63;;;14.70;99.90;;;;;;5055943;28;20173;-66
2021/08/29 04:55:23;;;;;;;0.40;0.33;;;14.70;99.90;;;;;;5055806;28;20191;-66
2021/08/29 04:57:49;;;;;;;0.50;0.50;;;14.80;99.90;;;;;;5055736;28;20197;-66
2021/08/29 05:00:15;;;;;;;0.73;0.60;;;14.70;99.90;;;;;;5055845;28;20258;-66
2021/08/29 05:02:40;;;;;;;1.53;1.00;;;14.80;99.90;;;;;;5055926;28;20190;-66
2021/08/29 05:05:06;;;;;;;0.30;0.20;;;14.70;99.90;;;;;;5055679;28;20387;-66
2021/08/29 05:07:32;;;;;;;0.30;0.20;;;14.70;99.90;;;;;;5054535;28;20276;-66
2021/08/29 05:09:58;;;;;;;0.95;0.63;;;14.90;99.90;;;;;;5055413;28;20456;-66
2021/08/29 05:12:24;;;;;;;0.73;0.73;;;15.00;99.90;;;;;;5055635;28;20260;-66
2021/08/29 05:14:50;;;;;;;0.30;0.10;;;14.90;99.90;;;;;;5055590;28;20173;-67
2021/08/29 05:17:15;;;;;;;0.30;0.20;;;14.80;99.90;;;;;;5055585;28;20251;-68
2021/08/29 05:19:41;;;;;;;0.30;0.20;;;14.80;99.90;;;;;;5055489;28;20423;-68
2021/08/29 05:22:07;;;;;;;0.30;0.20;;;15.00;99.90;;;;;;5055511;28;20255;-69
2021/08/29 05:24:32;;;;;;;0.50;0.50;;;15.00;99.90;;;;;;5055370;28;20173;-68
2021/08/29 05:26:58;;;;;;;0.30;0.20;;;15.00;99.90;;;;;;5055353;28;20169;-65
2021/08/29 05:29:23;;;;;;;0.30;0.20;;;15.10;99.90;;;;;;5055325;28;20181;-65
2021/08/29 05:31:49;;;;;;;0.30;0.20;;;15.00;99.90;;;;;;5055442;28;20265;-65
2021/08/29 05:34:14;;;;;;;0.30;0.20;;;14.90;99.90;;;;;;5055377;28;20267;-65
2021/08/29 05:36:40;;;;;;;0.30;0.10;;;15.00;99.90;;;;;;5055427;28;20185;-65
2021/08/29 05:39:06;;;;;;;0.30;0.20;;;15.00;99.90;;;;;;5053931;28;20176;-65
2021/08/29 05:41:31;;;;;;;0.80;0.43;;;15.00;99.90;;;;;;5055249;28;20173;-65
2021/08/29 05:43:57;;;;;;;0.30;0.20;;;15.00;99.90;;;;;;5055199;28;20260;-65
2021/08/29 05:46:22;;;;;;;0.30;0.20;;;15.00;99.90;;;;;;5054530;28;20177;-65
2021/08/29 05:48:50;;;;;;;0.30;0.10;;;15.10;99.90;;;;;;5054859;28;20256;-65
2021/08/29 05:51:16;;;;;;;1.67;1.58;;;15.10;99.90;;;;;;5054940;28;20585;-65
2021/08/29 05:53:42;;;;;;;0.30;0.20;;;15.20;99.90;;;;;;5054686;28;20173;-67
2021/08/29 05:56:07;;;;;;;0.40;0.30;;;15.20;99.90;;;;;;5054802;28;20236;-68
2021/08/29 05:58:33;;;;;;;0.50;0.33;;;15.20;99.90;;;;;;5054497;28;20648;-68
2021/08/29 06:01:00;;;;;;;0.93;0.90;;;15.20;99.90;;;;;;5054708;28;20181;-69
2021/08/29 06:03:26;;;;;;;0.30;0.10;;;15.00;99.90;;;;;;5054802;28;20609;-69
2021/08/29 06:05:51;;;;;;;1.13;0.35;;;15.10;99.90;;;;;;5054572;28;20208;-70
2021/08/29 06:08:17;;;;;;;1.80;0.50;;;15.30;99.90;;;;;;5053199;28;20220;-69
2021/08/29 06:10:43;;;;;;;0.60;0.60;;;15.20;99.90;;;;;;5054328;28;20209;-69
2021/08/29 06:13:09;;;;;;;1.43;1.40;;;15.30;99.90;;;;;;5052715;28;20184;-69
2021/08/29 06:15:37;;;;;;;0.93;0.87;;;15.20;99.90;;;;;;5053338;28;20233;-69
2021/08/29 06:18:03;;;;;;;0.30;0.20;;;15.10;99.90;;;;;;5054377;28;20218;-69
2021/08/29 06:20:28;;;;;;;0.65;0.65;;;15.20;99.90;;;;;;5053241;28;20522;-69
2021/08/29 06:22:54;;;;;;;3.50;2.30;;;15.40;99.90;;;;;;5054279;28;20322;-69
2021/08/29 06:25:19;;;;;;;0.30;0.20;;;15.40;99.90;;;;;;5054077;28;20185;-69
2021/08/29 06:27:45;;;;;;;0.30;0.20;;;15.30;99.90;;;;;;5053169;28;20184;-69
2021/08/29 06:30:11;;;;;;;0.80;0.77;;;15.40;99.90;;;;;;5053021;28;20301;-69
2021/08/29 06:32:36;;;;;;;0.40;0.20;;;15.40;99.90;;;;;;5053267;28;20183;-70
2021/08/29 06:35:02;;;;;;;0.40;0.30;;;15.40;99.90;;;;;;5054660;28;20181;-69
2021/08/29 06:37:28;;;;;;;0.50;0.20;;;15.50;99.90;;;;;;5050909;28;20189;-69
2021/08/29 06:39:53;;;;;;;0.80;0.80;;;15.60;99.90;;;;;;5051763;28;20898;-69
2021/08/29 06:42:19;;;;;;;0.53;0.30;;;15.50;99.90;;;;;;5045202;28;20195;-69
2021/08/29 06:44:45;;;;;;;0.30;0.10;;;15.60;99.90;;;;;;5034008;28;20272;-69
2021/08/29 06:47:10;;;;;;;2.97;0.33;;;15.60;99.90;;;;;;5046305;28;20205;-69
2021/08/29 06:49:36;;;;;;;0.30;0.20;;;15.50;99.90;;;;;;5051612;28;20219;-69
2021/08/29 06:52:01;;;;;;;0.30;0.20;;;15.40;99.90;;;;;;5032609;28;20586;-69
2021/08/29 06:54:27;;;;;;;1.80;1.80;;;15.40;99.90;;;;;;5035229;28;20642;-69
2021/08/29 06:56:52;;;;;;;0.30;0.20;;;15.60;99.90;;;;;;5052508;28;20219;-69
2021/08/29 06:59:18;;;;;;;0.30;0.20;;;15.60;99.90;;;;;;5041117;28;20283;-69
2021/08/29 07:01:43;;;;;;;0.40;0.20;;;15.50;99.90;;;;;;5033755;28;20634;-69
2021/08/29 07:04:09;;;;;;;0.67;0.67;;;15.40;99.90;;;;;;5033858;28;20177;-69
2021/08/29 07:06:36;;;;;;;0.30;0.20;;;15.40;99.90;;;;;;5032656;28;20184;-69
2021/08/29 07:09:02;;;;;;;2.30;0.80;;;15.40;99.90;;;;;;5033394;28;20173;-69
2021/08/29 07:11:28;;;;;;;0.30;0.20;;;15.50;99.90;;;;;;5033969;28;20468;-69
2021/08/29 07:13:53;;;;;;;0.40;0.30;;;15.40;99.90;;;;;;5053563;28;20507;-69
2021/08/29 07:16:19;;;;;;;0.70;0.70;;;15.40;99.90;;;;;;5042464;28;20177;-69
2021/08/29 07:18:45;;;;;;;0.30;0.20;;;15.50;99.90;;;;;;5033381;28;20178;-69
2021/08/29 07:21:10;;;;;;;0.30;0.20;;;15.50;99.90;;;;;;5032508;28;20264;-70
2021/08/29 07:23:36;;;;;;;0.40;0.40;;;15.60;99.90;;;;;;5032703;28;20642;-70
2021/08/29 07:26:02;;;;;;;1.37;0.87;;;15.70;99.90;;;;;;5033478;28;20262;-70
2021/08/29 07:28:27;;;;;;;0.30;0.20;;;15.70;99.90;;;;;;5033152;28;20246;-69
2021/08/29 07:30:53;;;;;;;0.30;0.20;;;15.90;99.90;;;;;;5033582;28;20464;-69
2021/08/29 07:33:19;;;;;;;0.30;0.20;;;16.00;99.90;;;;;;5032543;28;20181;-70
2021/08/29 07:35:44;;;;;;;0.30;0.17;;;16.20;99.90;;;;;;5032361;28;20213;-68
2021/08/29 07:38:10;;;;;;;0.40;0.30;;;15.90;99.90;;;;;;5033126;28;20182;-69
2021/08/29 07:40:36;;;;;;;0.30;0.20;;;16.00;99.90;;;;;;5033304;28;20188;-70
2021/08/29 07:43:01;;;;;;;1.30;1.20;;;15.90;99.90;;;;;;5033128;28;20909;-67
2021/08/29 07:45:28;;;;;;;0.30;0.20;;;15.70;99.90;;;;;;5033648;28;20189;-67
2021/08/29 07:47:54;;;;;;;0.30;0.20;;;15.80;99.90;;;;;;5052913;28;20173;-67
2021/08/29 07:50:23;;;;;;;0.30;0.20;;;15.90;99.90;;;;;;5041545;28;20638;-67
2021/08/29 07:52:49;;;;;;;0.40;0.20;;;15.90;99.90;;;;;;5032214;28;20436;-69
2021/08/29 07:55:15;;;;;;;0.40;0.20;;;15.90;99.90;;;;;;5032023;28;20447;-68
2021/08/29 07:57:41;;;;;;;0.93;0.43;;;15.90;99.90;;;;;;5033080;28;20471;-67
2021/08/29 08:00:08;;;;;;;0.30;0.20;;;16.10;99.90;;;;;;5033063;28;20515;-67
2021/08/29 08:02:33;;;;;;;0.30;0.20;;;15.90;99.90;;;;;;5033076;28;20276;-67
2021/08/29 08:04:59;;;;;;;0.50;0.30;;;16.10;99.90;;;;;;5033201;28;20913;-69
2021/08/29 08:07:25;;;;;;;0.50;0.50;;;16.30;99.90;;;;;;5033003;28;20892;-70
2021/08/29 08:09:51;;;;;;;1.17;0.67;;;16.20;99.90;;;;;;5034125;28;20177;-70
2021/08/29 08:12:16;;;;;;;0.37;0.17;;;16.00;99.90;;;;;;5036686;28;20170;-70
2021/08/29 08:14:42;;;;;;;0.30;0.20;;;16.00;99.90;;;;;;5036788;28;20177;-67
2021/08/29 08:17:07;;;;;;;0.30;0.20;;;16.00;99.90;;;;;;5036892;28;20273;-68
2021/08/29 08:19:33;;;;;;;0.70;0.50;;;16.00;99.90;;;;;;5036721;28;20216;-69
2021/08/29 08:22:00;;;;;;;0.30;0.20;;;16.20;99.90;;;;;;5036640;28;20185;-69
2021/08/29 08:24:25;;;;;;;0.73;0.70;;;16.10;99.90;;;;;;5036623;28;20431;-66
2021/08/29 08:26:51;;;;;;;0.40;0.30;;;16.00;99.90;;;;;;5036456;28;20948;-67
2021/08/29 08:29:16;;;;;;;0.30;0.10;;;16.00;99.90;;;;;;5035355;28;20190;-65
2021/08/29 08:31:42;;;;;;;0.30;0.20;;;16.30;99.90;;;;;;5036785;28;20241;-65
2021/08/29 08:34:08;;;;;;;0.40;0.40;;;16.40;99.90;;;;;;5036817;28;20643;-66
2021/08/29 08:36:33;;;;;;;0.37;0.20;;;16.30;99.90;;;;;;5035561;28;20272;-65
2021/08/29 08:39:02;;;;;;;0.50;0.30;;;16.50;99.90;;;;;;5036435;28;20420;-65
2021/08/29 08:41:28;;;;;;;0.37;0.20;;;16.40;99.90;;;;;;5036446;28;20178;-69
2021/08/29 08:43:55;;;;;;;0.33;0.20;;;16.80;99.90;;;;;;5036223;28;20428;-69
2021/08/29 08:46:23;;;;;;;0.40;0.20;;;17.30;99.90;;;;;;5043678;28;20535;-69
2021/08/29 08:48:51;;;;;;;0.33;0.17;;;17.00;99.90;;;;;;5055680;28;20428;-69
2021/08/29 08:51:28;;;;;;;0.40;0.20;;;17.10;99.90;;;;;;5038010;28;20482;-69
2021/08/29 08:53:55;;;;;;;0.40;0.20;;;16.90;99.90;;;;;;5036081;28;20460;-69
2021/08/29 08:56:22;;;;;;;0.40;0.20;;;16.70;99.90;;;;;;5036499;28;20424;-67
2021/08/29 08:58:48;;;;;;;0.40;0.17;;;17.00;99.90;;;;;;5034959;28;20539;-69
2021/08/29 09:01:15;;;;;;;0.53;0.30;;;17.10;99.90;;;;;;5035900;28;20837;-69
2021/08/29 09:03:41;;;;;;;0.40;0.30;;;16.90;99.90;;;;;;5036040;28;20485;-69
2021/08/29 09:06:08;;;;;;;0.40;0.20;;;17.30;99.90;;;;;;5034695;28;20432;-69
2021/08/29 09:08:35;;;;;;;0.40;0.20;;;17.50;99.90;;;;;;5035559;28;20727;-66
2021/08/29 09:11:01;;;;;;;0.70;0.60;;;17.20;99.90;;;;;;5035625;28;20460;-68
2021/08/29 09:13:26;;;;;;;0.40;0.10;;;17.10;99.90;;;;;;5035665;28;20747;-68
2021/08/29 09:16:12;;;;;;;0.40;0.20;;;17.10;99.90;;;;;;5035722;28;20921;-66
2021/08/29 09:18:48;;;;;;;0.40;0.20;;;17.30;99.90;;;;;;5036050;28;20680;-66
2021/08/29 09:21:35;;;;;;;0.40;0.17;;;17.30;99.90;;;;;;5047369;28;20434;-65
2021/08/29 09:24:07;;;;;;;0.40;0.10;;;17.50;99.90;;;;;;5056124;28;20420;-66
2021/08/29 09:26:32;;;;;;;1.00;0.67;;;17.60;99.90;;;;;;5055436;28;20432;-66
2021/08/29 09:28:59;;;;;;;0.50;0.37;;;17.70;99.90;;;;;;5055365;28;20453;-66
2021/08/29 09:31:45;;;;;;;0.70;0.50;;;17.70;99.90;;;;;;5055652;28;20290;-66
2021/08/29 09:34:11;;;;;;;0.40;0.20;;;17.40;99.90;;;;;;5045355;28;20463;-66
2021/08/29 09:36:38;;;;;;;0.40;0.20;;;17.30;99.90;;;;;;5043326;28;20467;-66
2021/08/29 09:39:18;;;;;;;0.40;0.20;;;17.50;99.90;;;;;;5045625;28;20899;-66
2021/08/29 09:41:44;;;;;;;0.40;0.20;;;17.60;99.90;;;;;;5044780;28;20462;-68
2021/08/29 09:44:18;;;;;;;0.40;0.20;;;17.80;99.90;;;;;;5044790;28;20907;-69
2021/08/29 09:46:57;;;;;;;0.40;0.30;;;17.90;99.90;;;;;;5043882;28;20817;-69
2021/08/29 09:49:26;;;;;;;0.40;0.20;;;17.70;99.90;;;;;;5044079;28;20440;-69
2021/08/29 09:51:53;;;;;;;0.40;0.20;;;17.50;99.90;;;;;;5042663;28;20541;-69
2021/08/29 09:54:41;;;;;;;0.40;0.20;;;17.40;99.90;;;;;;5043330;28;20439;-67
2021/08/29 09:57:10;;;;;;;0.40;0.10;;;17.30;99.90;;;;;;5044297;28;20428;-66
2021/08/29 09:59:47;;;;;;;0.40;0.20;;;17.60;99.90;;;;;;5045359;28;20481;-66
2021/08/29 10:02:18;;;;;;;0.40;0.10;;;17.60;99.90;;;;;;5045171;28;20825;-66
2021/08/29 10:04:44;;;;;;;0.40;0.17;;;17.90;99.90;;;;;;5043894;28;20420;-66
2021/08/29 10:07:15;;;;;;;0.40;0.20;;;17.70;99.90;;;;;;5043478;28;20431;-66
2021/08/29 10:09:42;;;;;;;0.40;0.10;;;18.00;99.90;;;;;;5051166;28;20185;-66
2021/08/29 10:12:09;;;;;;;0.40;0.20;;;18.20;99.90;;;;;;5054521;28;20540;-66
2021/08/29 10:14:36;;;;;;;0.40;0.20;;;18.80;99.90;;;;;;5054656;28;20481;-66
2021/08/29 10:17:03;;;;;;;0.40;0.10;;;18.60;99.90;;;;;;5054273;28;20427;-66
2021/08/29 10:19:29;;;;;;;0.40;0.20;;;18.60;99.90;;;;;;5054091;28;20461;-66
2021/08/29 10:21:57;;;;;;;0.40;0.20;;;18.60;99.90;;;;;;5054174;28;20430;-67
2021/08/29 10:24:25;;;;;;;0.50;0.23;;;18.30;99.90;;;;;;5054137;28;20767;-69
2021/08/29 10:26:53;;;;;;;0.40;0.20;;;17.90;99.90;;;;;;5054156;28;20439;-69
2021/08/29 10:29:28;;;;;;;0.93;0.90;;;17.80;99.90;;;;;;5053997;28;20424;-66
2021/08/29 10:32:10;;;;;;;0.40;0.20;;;17.70;99.90;;;;;;5053868;28;20923;-65
2021/08/29 10:34:37;;;;;;;1.63;0.80;;;17.70;99.90;;;;;;5054089;28;20423;-68
2021/08/29 10:37:03;;;;;;;0.50;0.27;;;17.70;99.90;;;;;;5052684;28;20914;-68
2021/08/29 10:39:29;;;;;;;0.50;0.50;;;17.70;99.90;;;;;;5053794;28;20422;-68
2021/08/29 10:41:56;;;;;;;0.97;0.30;;;17.90;99.90;;;;;;5052818;28;20765;-67
2021/08/29 10:44:23;;;;;;;0.40;0.20;;;18.20;99.90;;;;;;5053886;28;20513;-68
2021/08/29 10:46:49;;;;;;;0.40;0.17;;;18.40;99.90;;;;;;5053805;28;20423;-68
2021/08/29 10:49:15;;;;;;;0.50;0.30;;;18.70;99.90;;;;;;5053829;28;20537;-69
2021/08/29 10:51:41;;;;;;;0.40;0.20;;;18.70;99.90;;;;;;5053709;28;20844;-69
2021/08/29 10:54:14;;;;;;;0.50;0.30;;;18.70;99.90;;;;;;5053766;28;20524;-69
2021/08/29 10:56:41;;;;;;;0.50;0.40;;;18.50;99.90;;;;;;5053300;28;20438;-69
2021/08/29 10:59:06;;;;;;;0.40;0.30;;;18.00;99.90;;;;;;5053301;28;20923;-69
2021/08/29 11:01:44;;;;;;;0.60;0.60;;;17.90;99.90;;;;;;5052241;28;20419;-69
2021/08/29 11:04:24;;;;;;;0.40;0.20;;;17.80;99.90;;;;;;5054003;28;20190;-66
2021/08/29 11:06:58;;;;;;;0.60;0.57;;;17.80;99.90;;;;;;5053425;28;20465;-67
2021/08/29 11:09:36;;;;;;;2.03;0.77;;;17.80;99.90;;;;;;5053196;28;20430;-67
2021/08/29 11:12:06;;;;;;;1.23;0.57;;;17.80;99.90;;;;;;5053074;28;20962;-67
2021/08/29 11:14:38;;;;;;;1.07;0.50;;;18.00;99.90;;;;;;5053693;28;20427;-67
2021/08/29 11:17:15;;;;;;;1.37;1.20;;;18.20;99.90;;;;;;5053369;28;20445;-67
2021/08/29 11:19:42;;;;;;;0.87;0.87;;;18.10;99.90;;;;;;5053015;28;20484;-67
2021/08/29 11:22:08;;;;;;;0.70;0.40;;;18.20;99.90;;;;;;5053222;28;20506;-66
2021/08/29 11:24:52;;;;;;;0.67;0.67;;;18.20;99.90;;;;;;5053144;28;20562;-66
2021/08/29 11:27:39;;;;;;;1.60;1.50;;;18.10;99.90;;;;;;5053013;28;20191;-66
2021/08/29 11:30:38;;;;;;;1.07;0.97;;;18.10;99.90;;;;;;5052705;28;20419;-66
2021/08/29 11:33:13;;;;;;;0.50;0.50;;;18.20;99.90;;;;;;5051521;28;20976;-66
2021/08/29 11:36:05;;;;;;;0.40;0.20;;;18.00;99.90;;;;;;5037137;28;20486;-66
2021/08/29 11:38:32;;;;;;;1.00;0.50;;;18.00;99.90;;;;;;5032145;28;20505;-67
2021/08/29 11:41:17;;;;;;;0.40;0.20;;;18.00;99.90;;;;;;5033371;28;20432;-67
2021/08/29 11:43:52;;;;;;;0.50;0.30;;;18.30;99.90;;;;;;5033443;28;20436;-68
2021/08/29 11:46:22;;;;;;;0.83;0.80;;;18.40;99.90;;;;;;5036144;28;20437;-67
2021/08/29 11:49:01;;;;;;;1.57;1.00;;;18.30;99.90;;;;;;5052792;28;20447;-67
2021/08/29 11:51:43;;;;;;;0.97;0.40;;;18.10;99.90;;;;;;5058344;28;20959;-67
2021/08/29 11:54:11;;;;;;;0.87;0.70;;;18.40;99.90;;;;;;5076263;28;20430;-67
2021/08/29 11:56:37;;;;;;;0.57;0.30;;;18.40;99.90;;;;;;5076915;28;20517;-67
2021/08/29 11:59:07;;;;;;;0.50;0.40;;;18.40;99.90;;;;;;5076642;28;20940;-67
2021/08/29 12:01:34;;;;;;;2.10;1.40;;;18.30;99.90;;;;;;5077179;28;20803;-67
2021/08/29 12:04:02;;;;;;;1.57;1.47;;;18.30;99.90;;;;;;5076964;28;20426;-68
2021/08/29 12:06:50;;;;;;;0.40;0.20;;;18.20;99.90;;;;;;5077115;28;20441;-67
2021/08/29 12:09:33;;;;;;;3.80;0.70;;;18.00;99.90;;;;;;5076982;28;20524;-67
2021/08/29 12:11:59;;;;;;;0.70;0.50;;;18.00;99.90;;;;;;5076598;28;20926;-67
2021/08/29 12:14:26;;;;;;;0.40;0.20;;;18.10;99.90;;;;;;5076596;28;20422;-67
2021/08/29 12:17:01;;;;;;;1.23;1.07;;;18.20;99.90;;;;;;5076152;28;20762;-67
2021/08/29 12:19:29;;;;;;;8.90;1.80;;;18.20;99.90;;;;;;5076113;28;20440;-67
2021/08/29 12:21:56;;;;;;;0.40;0.20;;;18.00;99.90;;;;;;5076427;28;20495;-67
2021/08/29 12:24:28;;;;;;;0.50;0.30;;;18.00;99.90;;;;;;5076635;28;20430;-67
2021/08/29 12:27:14;;;;;;;0.40;0.20;;;17.80;99.90;;;;;;5076652;28;20422;-67
2021/08/29 12:29:57;;;;;;;1.07;0.60;;;17.70;99.90;;;;;;5075267;28;20426;-67
2021/08/29 12:32:31;;;;;;;2.10;1.20;;;17.60;99.90;;;;;;5076235;28;20454;-67
2021/08/29 12:35:06;;;;;;;0.83;0.57;;;17.60;99.90;;;;;;5076487;28;20414;-67
2021/08/29 12:37:34;;;;;;;0.47;0.20;;;17.60;99.90;;;;;;5076368;28;20439;-67
2021/08/29 12:40:02;;;;;;;0.80;0.50;;;17.40;99.90;;;;;;5076082;28;20894;-69
2021/08/29 12:42:31;;;;;;;3.80;3.20;;;17.40;99.90;;;;;;5075341;28;20532;-68
2021/08/29 12:44:58;;;;;;;0.40;0.20;;;17.50;99.90;;;;;;5075053;28;20475;-66
2021/08/29 12:47:25;;;;;;;0.40;0.20;;;17.50;99.90;;;;;;5076146;28;20422;-67
2021/08/29 12:49:53;;;;;;;1.33;1.27;;;17.60;99.90;;;;;;5075844;28;20497;-67
2021/08/29 12:52:30;;;;;;;0.70;0.40;;;17.70;99.90;;;;;;5075853;28;20461;-64